Time;durP1;ratioP1;P1;durP2;ratioP2;P2;SDS_P1;SDS_P2;PMS_P1;PMS_P2;Temp;Humidity;BMP_temperature;BMP_pressure;BME280_temperature;BME280_humidity;BME280_pressure;Samples;Min_cycle;Max_cycle;Signal;HPM_P1;HPM_P2
2022/11/02 00:00:23;;;;;;;5.57;3.00;;;8.50;84.20;;;;;;4946228;28;20054;-64
2022/11/02 00:02:55;;;;;;;6.13;3.38;;;8.40;84.20;;;;;;4947570;28;20594;-64
2022/11/02 00:05:23;;;;;;;10.40;3.33;;;8.40;84.10;;;;;;4950869;28;20043;-61
2022/11/02 00:07:51;;;;;;;9.25;3.25;;;8.40;84.10;;;;;;4948820;28;20047;-61
2022/11/02 00:10:20;;;;;;;9.07;3.28;;;8.40;84.10;;;;;;4945146;28;20074;-74
2022/11/02 00:12:48;;;;;;;7.65;3.75;;;8.30;84.10;;;;;;4960983;28;20043;-72
2022/11/02 00:15:15;;;;;;;6.57;2.75;;;8.30;84.20;;;;;;4948504;28;20047;-62
2022/11/02 00:17:46;;;;;;;6.25;2.50;;;8.30;84.30;;;;;;4947995;28;20053;-60
2022/11/02 00:20:16;;;;;;;7.63;3.20;;;8.30;84.30;;;;;;4948328;28;20055;-67
2022/11/02 00:22:45;;;;;;;5.70;2.55;;;8.30;84.20;;;;;;4948645;28;20043;-67
2022/11/02 00:25:14;;;;;;;8.40;2.55;;;8.20;84.30;;;;;;4937124;28;20498;-61
2022/11/02 00:27:43;;;;;;;6.03;2.45;;;8.20;84.30;;;;;;4948070;28;20055;-62
2022/11/02 00:30:11;;;;;;;5.20;2.10;;;8.20;84.20;;;;;;4948698;28;20512;-61
2022/11/02 00:32:38;;;;;;;7.55;2.92;;;8.20;84.20;;;;;;4946759;28;20051;-75
2022/11/02 00:35:06;;;;;;;7.95;2.90;;;8.20;84.20;;;;;;4954559;28;20058;-75
2022/11/02 00:37:34;;;;;;;8.80;2.35;;;8.20;84.20;;;;;;4948620;28;20051;-73
2022/11/02 00:40:01;;;;;;;7.72;2.28;;;8.10;84.10;;;;;;4947515;28;20484;-72
2022/11/02 00:42:28;;;;;;;8.27;2.63;;;8.10;84.30;;;;;;4948498;28;20644;-72
2022/11/02 00:44:58;;;;;;;7.10;2.50;;;8.10;84.20;;;;;;4943507;28;20063;-71
2022/11/02 00:47:24;;;;;;;7.85;2.47;;;8.10;84.20;;;;;;4947536;28;20051;-64
2022/11/02 00:49:53;;;;;;;8.32;3.03;;;8.10;84.10;;;;;;4944243;28;20131;-64
2022/11/02 00:52:20;;;;;;;7.93;2.47;;;8.10;84.30;;;;;;4935843;28;20576;-72
2022/11/02 00:54:50;;;;;;;7.27;3.07;;;8.00;84.30;;;;;;4949373;28;20110;-72
2022/11/02 00:57:17;;;;;;;9.60;2.80;;;8.10;84.20;;;;;;4961731;28;20474;-63
2022/11/02 00:59:45;;;;;;;8.10;2.20;;;8.10;84.30;;;;;;4947276;28;20053;-63
2022/11/02 01:02:17;;;;;;;6.55;2.63;;;8.00;84.30;;;;;;4946748;28;20577;-63
2022/11/02 01:04:43;;;;;;;5.90;2.40;;;8.00;84.30;;;;;;4949255;28;20137;-62
2022/11/02 01:07:10;;;;;;;8.77;2.75;;;8.00;84.40;;;;;;4940495;28;20063;-62
2022/11/02 01:09:37;;;;;;;7.65;2.45;;;7.90;84.50;;;;;;4945910;28;20043;-63
2022/11/02 01:12:05;;;;;;;7.18;2.42;;;7.90;84.60;;;;;;4939338;28;20429;-74
2022/11/02 01:14:32;;;;;;;6.72;2.30;;;7.90;84.50;;;;;;4938528;28;20047;-73
2022/11/02 01:16:59;;;;;;;4.88;2.22;;;7.90;84.50;;;;;;4943477;28;20043;-66
2022/11/02 01:19:27;;;;;;;6.10;2.38;;;7.90;84.50;;;;;;4941268;28;20043;-67
2022/11/02 01:21:58;;;;;;;7.20;2.80;;;7.90;84.40;;;;;;4944935;28;20066;-62
2022/11/02 01:24:25;;;;;;;7.63;2.33;;;7.90;84.30;;;;;;4959002;28;20059;-61
2022/11/02 01:26:52;;;;;;;7.10;2.50;;;7.90;84.40;;;;;;4963977;28;20557;-62
2022/11/02 01:29:19;;;;;;;6.70;2.50;;;7.90;84.50;;;;;;4948189;28;20635;-61
2022/11/02 01:31:47;;;;;;;6.93;2.85;;;7.80;84.40;;;;;;4950743;28;20680;-74
2022/11/02 01:34:17;;;;;;;9.05;2.90;;;7.80;84.60;;;;;;4948765;28;20055;-74
2022/11/02 01:36:46;;;;;;;8.40;2.65;;;7.90;84.50;;;;;;4950333;28;20059;-62
2022/11/02 01:39:13;;;;;;;7.50;2.70;;;7.80;84.40;;;;;;4948585;28;20494;-62
2022/11/02 01:41:41;;;;;;;5.35;2.40;;;7.80;84.40;;;;;;4949668;28;20043;-62
2022/11/02 01:44:29;;;;;;;7.82;2.97;;;7.80;84.50;;;;;;4954329;28;20056;-62
2022/11/02 01:47:03;;;;;;;6.80;2.85;;;7.80;84.60;;;;;;4942578;28;20050;-75
2022/11/02 01:49:33;;;;;;;8.50;2.70;;;7.80;84.70;;;;;;4951779;28;20058;-76
2022/11/02 01:52:07;;;;;;;7.18;2.45;;;7.70;84.60;;;;;;4944023;28;20058;-72
2022/11/02 01:54:42;;;;;;;6.05;2.28;;;7.80;84.60;;;;;;4947434;28;20110;-71
2022/11/02 01:57:12;;;;;;;7.90;2.20;;;7.70;84.70;;;;;;4953646;28;20472;-71
2022/11/02 01:59:45;;;;;;;7.35;2.25;;;7.70;84.70;;;;;;4937861;28;20051;-72
2022/11/02 02:02:16;;;;;;;5.80;2.28;;;7.80;84.80;;;;;;4947759;28;20059;-62
2022/11/02 02:04:43;;;;;;;4.93;2.45;;;7.80;84.70;;;;;;4954857;28;20050;-64
2022/11/02 02:07:13;;;;;;;4.82;1.80;;;7.80;84.70;;;;;;4949303;28;20052;-62
2022/11/02 02:09:41;;;;;;;3.50;1.60;;;7.70;84.70;;;;;;4950099;28;20054;-62
2022/11/02 02:12:08;;;;;;;7.45;2.33;;;7.70;84.80;;;;;;4951957;28;20455;-66
2022/11/02 02:14:35;;;;;;;5.30;2.60;;;7.70;84.90;;;;;;4954639;28;20044;-66
2022/11/02 02:17:24;;;;;;;6.72;2.28;;;7.60;85.10;;;;;;4949912;28;20077;-62
2022/11/02 02:20:02;;;;;;;5.55;2.05;;;7.70;84.90;;;;;;4949645;28;20051;-64
2022/11/02 02:23:10;;;;;;;7.57;3.13;;;7.70;85.00;;;;;;4941816;28;20055;-64
2022/11/02 02:26:34;;;;;;;5.43;2.13;;;7.60;85.10;;;;;;4949627;28;20050;-64
2022/11/02 02:29:11;;;;;;;4.60;1.73;;;7.60;85.00;;;;;;4940841;28;20055;-64
2022/11/02 02:31:48;;;;;;;4.70;2.00;;;7.70;84.90;;;;;;4937205;28;20051;-74
2022/11/02 02:34:19;;;;;;;5.70;1.67;;;7.70;84.80;;;;;;4951735;28;20051;-72
2022/11/02 02:36:50;;;;;;;;;;;7.60;84.90;;;;;;4953745;28;20073;-70
2022/11/02 02:39:24;;;;;;;5.35;1.60;;;7.70;85.00;;;;;;4950570;28;19922;-72
2022/11/02 02:41:58;;;;;;;7.72;2.00;;;7.60;85.10;;;;;;4966382;28;20051;-61
2022/11/02 02:47:21;;;;;;;7.60;2.85;;;7.70;85.10;;;;;;5047469;27;20644;-64
2022/11/02 02:49:53;;;;;;;7.97;2.42;;;7.70;85.10;;;;;;5044096;28;20079;-63
2022/11/02 02:52:21;;;;;;;6.85;2.10;;;7.70;85.00;;;;;;5046584;28;20053;-64
2022/11/02 02:54:51;;;;;;;7.03;2.28;;;7.70;85.10;;;;;;5024879;28;20453;-64
2022/11/02 02:57:21;;;;;;;6.28;2.08;;;7.60;85.10;;;;;;5049362;28;20081;-66
2022/11/02 02:59:49;;;;;;;4.30;1.70;;;7.60;85.10;;;;;;5034854;28;20131;-66
2022/11/02 03:02:23;;;;;;;5.93;1.73;;;7.60;85.10;;;;;;5032093;28;20504;-62
2022/11/02 03:04:50;;;;;;;5.63;1.60;;;7.60;85.10;;;;;;5041473;28;20049;-63
2022/11/02 03:07:20;;;;;;;6.25;1.63;;;7.60;85.30;;;;;;5039332;28;20145;-73
2022/11/02 03:09:56;;;;;;;6.35;2.08;;;7.50;85.30;;;;;;5042898;28;20061;-71
2022/11/02 03:12:32;;;;;;;4.30;1.80;;;7.50;85.20;;;;;;5034587;28;20108;-74
2022/11/02 03:15:10;;;;;;;4.60;1.90;;;7.50;85.20;;;;;;5046490;28;20048;-74
2022/11/02 03:17:46;;;;;;;4.75;1.88;;;7.40;85.20;;;;;;5034621;28;20107;-72
2022/11/02 03:20:23;;;;;;;4.80;1.98;;;7.40;85.30;;;;;;5028832;28;20050;-73
2022/11/02 03:23:01;;;;;;;5.43;1.70;;;7.40;85.20;;;;;;5029069;28;20128;-74
2022/11/02 03:25:34;;;;;;;4.28;1.60;;;7.50;85.20;;;;;;5035624;28;20065;-64
2022/11/02 03:28:07;;;;;;;6.57;1.52;;;7.40;85.20;;;;;;5035548;28;20072;-64
2022/11/02 03:30:42;;;;;;;4.95;1.88;;;7.50;85.20;;;;;;5029779;28;20045;-62
2022/11/02 03:33:19;;;;;;;5.18;2.20;;;7.50;85.10;;;;;;5031208;28;20045;-61
2022/11/02 03:35:51;;;;;;;4.93;1.70;;;7.50;85.20;;;;;;5035472;28;20046;-72
2022/11/02 03:38:22;;;;;;;7.20;1.60;;;7.50;85.20;;;;;;5041918;28;20553;-71
2022/11/02 03:40:50;;;;;;;;;;;7.50;85.20;;;;;;5047465;28;20041;-62
2022/11/02 03:43:21;;;;;;;4.40;1.60;;;7.50;85.30;;;;;;5048873;28;19928;-62
2022/11/02 03:45:54;;;;;;;4.38;1.35;;;7.50;85.20;;;;;;5043871;28;20050;-63
2022/11/02 03:48:29;;;;;;;7.10;1.63;;;7.50;85.30;;;;;;5057056;28;20098;-64
2022/11/02 03:51:00;;;;;;;3.45;1.83;;;7.50;85.40;;;;;;5050690;28;20496;-63
2022/11/02 03:53:36;;;;;;;7.70;1.52;;;7.50;85.40;;;;;;5047152;28;20052;-63
2022/11/02 03:56:06;;;;;;;3.22;1.45;;;7.40;85.40;;;;;;5043687;28;20129;-64
2022/11/02 03:58:36;;;;;;;4.43;1.80;;;7.40;85.60;;;;;;5034306;28;20049;-64
2022/11/02 04:01:07;;;;;;;5.65;1.33;;;7.40;85.70;;;;;;5035033;28;20469;-62
2022/11/02 04:03:39;;;;;;;6.40;2.05;;;7.60;85.70;;;;;;5028358;28;20054;-61
2022/11/02 04:06:06;;;;;;;5.55;1.73;;;7.60;86.00;;;;;;5036247;28;20042;-63
2022/11/02 04:08:39;;;;;;;5.75;1.60;;;7.50;86.10;;;;;;5037025;28;20055;-62
2022/11/02 04:16:47;;;;;;;4.78;1.73;;;7.70;86.50;;;;;;5037768;28;20072;-66
2022/11/02 04:19:27;;;;;;;4.28;1.27;;;7.70;86.50;;;;;;5035692;28;20484;-66
2022/11/02 04:27:33;;;;;;;6.00;1.83;;;7.70;86.60;;;;;;5032954;28;20045;-61
2022/11/02 04:30:00;;;;;;;4.97;1.33;;;7.70;86.40;;;;;;5033234;28;20058;-61
2022/11/02 04:35:19;;;;;;;4.10;1.42;;;7.70;86.50;;;;;;5025391;28;20091;-63
2022/11/02 04:40:35;;;;;;;6.78;2.15;;;7.80;86.70;;;;;;5034602;28;20059;-62
2022/11/02 04:43:04;;;;;;;5.25;1.40;;;7.70;86.90;;;;;;5049205;28;20053;-62
2022/11/02 04:45:33;;;;;;;4.45;1.80;;;7.80;87.00;;;;;;5035293;28;20061;-70
2022/11/02 04:48:00;;;;;;;4.70;1.50;;;7.80;87.00;;;;;;5034051;28;20059;-70
2022/11/02 04:50:32;;;;;;;;;;;7.90;87.00;;;;;;5050334;28;20063;-64
2022/11/02 04:53:01;;;;;;;4.15;1.48;;;7.90;87.20;;;;;;5033829;28;20019;-64
2022/11/02 04:55:31;;;;;;;4.90;1.75;;;7.90;87.30;;;;;;5048764;28;20054;-63
2022/11/02 04:58:00;;;;;;;3.97;1.53;;;7.90;86.80;;;;;;5047708;28;20045;-63
2022/11/02 05:00:27;;;;;;;5.68;1.63;;;7.90;87.10;;;;;;5037154;28;20053;-65
2022/11/02 05:02:55;;;;;;;5.70;1.70;;;7.90;87.30;;;;;;5034319;28;20131;-70
2022/11/02 05:05:23;;;;;;;4.53;1.50;;;7.90;87.30;;;;;;5035217;28;20095;-66
2022/11/02 05:07:54;;;;;;;4.60;1.70;;;7.90;87.40;;;;;;5030815;28;20116;-66
2022/11/02 05:10:21;;;;;;;3.92;1.27;;;8.00;87.50;;;;;;5037011;28;20103;-70
2022/11/02 05:12:56;;;;;;;5.28;1.50;;;8.00;87.40;;;;;;5031577;28;20041;-70
2022/11/02 05:15:23;;;;;;;4.75;1.70;;;8.00;87.50;;;;;;5045830;28;20055;-62
2022/11/02 05:17:50;;;;;;;5.90;1.45;;;8.00;87.60;;;;;;5035400;28;20048;-61
2022/11/02 05:20:18;;;;;;;3.78;1.75;;;8.00;87.70;;;;;;5045080;28;20419;-70
2022/11/02 05:22:45;;;;;;;4.57;1.70;;;8.10;87.80;;;;;;5034368;28;20140;-70
2022/11/02 05:25:14;;;;;;;4.88;2.10;;;8.10;87.80;;;;;;5035445;28;20055;-70
2022/11/02 05:27:42;;;;;;;9.40;1.73;;;8.10;87.70;;;;;;5029167;28;20044;-71
2022/11/02 05:30:10;;;;;;;3.42;1.40;;;8.10;88.10;;;;;;5032862;28;20061;-70
2022/11/02 05:32:38;;;;;;;3.28;1.30;;;8.10;87.90;;;;;;5035024;28;20049;-70
2022/11/02 05:35:05;;;;;;;4.63;1.48;;;8.10;88.00;;;;;;5032631;28;20129;-71
2022/11/02 05:37:33;;;;;;;4.03;1.48;;;8.10;88.10;;;;;;5031463;28;20086;-71
2022/11/02 05:40:00;;;;;;;4.93;1.63;;;8.10;87.90;;;;;;5033454;28;20061;-70
2022/11/02 05:42:30;;;;;;;5.25;1.63;;;8.20;87.90;;;;;;5033843;28;20045;-73
2022/11/02 05:44:58;;;;;;;3.65;1.63;;;8.20;87.90;;;;;;5042818;28;20048;-72
2022/11/02 05:47:25;;;;;;;5.18;1.38;;;8.20;88.20;;;;;;5032834;28;20076;-61
2022/11/02 05:49:52;;;;;;;4.43;1.70;;;8.20;88.10;;;;;;5036191;28;20053;-61
2022/11/02 05:52:19;;;;;;;4.63;1.60;;;8.20;88.20;;;;;;5033713;28;20056;-72
2022/11/02 05:54:46;;;;;;;5.60;1.80;;;8.20;87.90;;;;;;5034843;28;20057;-72
2022/11/02 05:57:13;;;;;;;5.72;1.90;;;8.20;88.10;;;;;;5034386;28;20053;-64
2022/11/02 05:59:41;;;;;;;4.05;1.38;;;8.20;88.20;;;;;;5033693;28;20040;-64
2022/11/02 06:02:08;;;;;;;5.03;1.38;;;8.20;88.30;;;;;;5033313;28;20065;-70
2022/11/02 06:04:34;;;;;;;4.07;1.48;;;8.20;88.20;;;;;;5036248;28;20056;-70
2022/11/02 06:07:01;;;;;;;6.45;1.35;;;8.10;88.20;;;;;;5035855;28;20071;-70
2022/11/02 06:09:28;;;;;;;4.38;1.67;;;8.10;88.30;;;;;;5036080;28;20041;-70
2022/11/02 06:11:56;;;;;;;3.95;1.42;;;8.10;88.40;;;;;;5036017;28;20480;-63
2022/11/02 06:14:23;;;;;;;4.72;1.52;;;8.10;88.40;;;;;;5034135;28;20098;-64
2022/11/02 06:16:51;;;;;;;6.15;1.83;;;8.10;88.50;;;;;;5033249;28;20052;-62
2022/11/02 06:19:18;;;;;;;6.70;1.70;;;8.20;88.40;;;;;;5033931;28;20554;-61
2022/11/02 06:21:45;;;;;;;5.60;1.50;;;8.20;88.50;;;;;;5035996;28;20049;-70
2022/11/02 06:24:12;;;;;;;4.10;1.70;;;8.20;88.50;;;;;;5032879;28;20527;-70
2022/11/02 06:26:39;;;;;;;5.93;1.85;;;8.20;88.50;;;;;;5035276;28;20400;-61
2022/11/02 06:29:06;;;;;;;5.05;1.85;;;8.30;88.60;;;;;;5023618;28;20049;-60
2022/11/02 06:31:33;;;;;;;8.32;2.00;;;8.40;88.50;;;;;;5035536;28;20617;-61
2022/11/02 06:34:01;;;;;;;6.40;1.85;;;8.40;88.60;;;;;;5034814;28;20056;-62
2022/11/02 06:36:30;;;;;;;6.75;2.15;;;8.40;88.70;;;;;;5035081;28;20048;-61
2022/11/02 06:38:57;;;;;;;5.43;1.63;;;8.50;88.80;;;;;;5035819;28;20055;-61
2022/11/02 06:41:26;;;;;;;5.13;1.60;;;8.50;88.80;;;;;;5034846;28;20546;-70
2022/11/02 06:43:52;;;;;;;4.63;1.65;;;8.50;88.80;;;;;;5033534;28;20739;-70
2022/11/02 06:46:20;;;;;;;4.45;1.65;;;8.60;88.70;;;;;;5032929;28;20108;-64
2022/11/02 06:48:47;;;;;;;5.22;1.60;;;8.60;88.70;;;;;;5033902;28;20140;-63
2022/11/02 06:51:15;;;;;;;6.10;2.30;;;8.60;88.70;;;;;;5030521;28;20041;-70
2022/11/02 06:53:42;;;;;;;7.43;1.90;;;8.70;88.60;;;;;;5035676;28;20038;-69
2022/11/02 06:56:11;;;;;;;8.05;1.60;;;8.70;88.60;;;;;;5036435;28;20061;-63
2022/11/02 06:58:39;;;;;;;7.85;1.52;;;8.80;89.10;;;;;;5048751;28;20049;-62
2022/11/02 07:01:07;;;;;;;4.85;1.50;;;8.90;89.20;;;;;;5029776;28;20057;-63
2022/11/02 07:03:35;;;;;;;7.10;1.73;;;8.90;89.20;;;;;;5028011;28;20065;-63
2022/11/02 07:06:02;;;;;;;5.28;1.33;;;9.00;89.20;;;;;;5042702;28;20057;-70
2022/11/02 07:08:30;;;;;;;4.25;1.33;;;9.00;89.20;;;;;;5031733;28;20052;-70
2022/11/02 07:10:57;;;;;;;5.40;1.73;;;9.10;89.20;;;;;;5029572;28;20049;-65
2022/11/02 07:13:24;;;;;;;7.85;1.48;;;9.10;89.30;;;;;;5034056;28;20063;-65
2022/11/02 07:15:54;;;;;;;9.75;1.70;;;9.20;89.40;;;;;;5034043;28;20041;-63
2022/11/02 07:18:21;;;;;;;6.03;1.40;;;9.20;89.40;;;;;;5033059;28;20044;-64
2022/11/02 07:20:47;;;;;;;4.78;1.90;;;9.20;89.70;;;;;;5033806;28;20061;-65
2022/11/02 07:23:14;;;;;;;9.00;2.55;;;9.30;89.50;;;;;;5032700;28;20387;-66
2022/11/02 07:25:43;;;;;;;9.43;2.90;;;9.30;89.50;;;;;;5031858;28;20060;-62
2022/11/02 07:28:10;;;;;;;12.13;3.67;;;9.40;89.50;;;;;;5031435;28;20057;-62
2022/11/02 07:30:37;;;;;;;7.72;3.03;;;9.40;89.60;;;;;;5035706;28;20049;-69
2022/11/02 07:33:04;;;;;;;6.80;2.90;;;9.40;89.80;;;;;;5037383;28;20049;-68
2022/11/02 07:35:32;;;;;;;14.38;3.60;;;9.40;89.60;;;;;;5039926;28;20049;-68
2022/11/02 07:38:01;;;;;;;9.50;3.45;;;9.40;89.60;;;;;;5051793;28;20080;-69
2022/11/02 07:40:29;;;;;;;8.23;2.72;;;9.40;89.80;;;;;;5057228;28;20120;-63
2022/11/02 07:42:58;;;;;;;8.63;2.55;;;9.50;89.90;;;;;;5036738;28;20108;-63
2022/11/02 07:45:41;;;;;;;10.73;2.45;;;9.50;90.10;;;;;;5035020;28;20127;-69
2022/11/02 07:48:08;;;;;;;8.13;1.58;;;9.60;90.30;;;;;;5036310;28;20049;-69
2022/11/02 07:50:36;;;;;;;5.80;1.30;;;9.60;90.30;;;;;;5037520;28;20046;-73
2022/11/02 07:53:02;;;;;;;6.18;1.73;;;9.70;90.30;;;;;;5038836;28;20507;-72
2022/11/02 07:55:35;;;;;;;7.57;1.42;;;9.70;90.30;;;;;;5039585;28;20053;-69
2022/11/02 07:58:06;;;;;;;6.35;1.30;;;9.70;90.20;;;;;;5034609;28;20480;-70
2022/11/02 08:00:36;;;;;;;7.55;1.40;;;9.70;90.40;;;;;;5038676;28;20049;-61
2022/11/02 08:03:05;;;;;;;5.25;1.27;;;9.80;90.40;;;;;;5034167;28;20049;-61
2022/11/02 08:05:38;;;;;;;6.07;1.58;;;9.90;90.20;;;;;;5032809;28;20132;-60
2022/11/02 08:08:10;;;;;;;5.60;1.50;;;9.90;90.30;;;;;;5036226;28;20076;-61
2022/11/02 08:10:37;;;;;;;6.18;1.80;;;10.00;90.40;;;;;;5034143;28;20164;-65
2022/11/02 08:13:06;;;;;;;4.63;1.23;;;10.10;90.30;;;;;;5036820;28;20053;-64
2022/11/02 08:15:33;;;;;;;5.05;1.42;;;10.20;90.40;;;;;;5034207;28;20538;-63
2022/11/02 08:18:01;;;;;;;8.18;1.60;;;10.20;90.20;;;;;;5036515;28;20136;-65
2022/11/02 08:20:28;;;;;;;5.28;1.42;;;10.30;90.40;;;;;;5035849;28;20063;-71
2022/11/02 08:22:55;;;;;;;4.80;0.95;;;10.50;90.30;;;;;;5037459;28;20057;-71
2022/11/02 08:25:22;;;;;;;9.60;1.58;;;10.50;90.20;;;;;;5035579;28;20045;-60
2022/11/02 08:27:49;;;;;;;4.93;1.40;;;10.60;90.00;;;;;;5033726;28;20079;-62
2022/11/02 08:30:18;;;;;;;6.00;1.45;;;10.60;90.20;;;;;;5035235;28;20112;-68
2022/11/02 08:32:45;;;;;;;3.00;1.13;;;10.70;90.00;;;;;;5035914;28;20049;-69
2022/11/02 08:35:12;;;;;;;8.38;1.33;;;10.70;90.00;;;;;;5039110;28;20054;-62
2022/11/02 08:37:39;;;;;;;7.85;1.50;;;10.70;90.00;;;;;;5038260;28;20053;-61
2022/11/02 08:40:07;;;;;;;5.60;1.20;;;10.80;89.90;;;;;;5034501;28;20075;-61
2022/11/02 08:42:37;;;;;;;6.03;1.33;;;10.80;89.80;;;;;;5033806;28;20045;-61
2022/11/02 08:45:06;;;;;;;9.70;1.58;;;10.80;89.80;;;;;;5035626;28;20049;-61
2022/11/02 08:47:34;;;;;;;9.20;1.90;;;10.80;89.60;;;;;;5032956;28;20380;-61
2022/11/02 08:50:01;;;;;;;10.20;1.80;;;10.80;89.50;;;;;;5040425;28;20061;-63
2022/11/02 08:52:34;;;;;;;5.88;1.38;;;10.80;89.60;;;;;;5035529;28;20130;-60
2022/11/02 08:55:04;;;;;;;3.90;1.20;;;10.90;89.60;;;;;;5039637;28;20049;-61
2022/11/02 08:57:31;;;;;;;4.93;1.40;;;11.00;89.40;;;;;;5036062;28;20471;-70
2022/11/02 08:59:58;;;;;;;5.90;1.50;;;11.00;89.40;;;;;;5034118;28;20137;-70
2022/11/02 09:02:27;;;;;;;7.32;1.20;;;11.10;89.40;;;;;;5035036;28;20073;-65
2022/11/02 09:04:56;;;;;;;5.93;1.25;;;11.10;89.30;;;;;;5034385;28;20058;-64
2022/11/02 09:07:22;;;;;;;6.47;1.65;;;11.10;89.40;;;;;;5035051;28;20498;-60
2022/11/02 09:09:49;;;;;;;7.03;1.20;;;11.20;89.40;;;;;;5035617;28;20056;-62
2022/11/02 09:12:16;;;;;;;5.10;1.67;;;11.30;89.20;;;;;;5035752;28;20136;-69
2022/11/02 09:14:43;;;;;;;7.75;1.50;;;11.40;89.10;;;;;;5031118;28;20576;-68
2022/11/02 09:17:10;;;;;;;5.03;1.20;;;11.40;88.90;;;;;;5037905;28;20083;-60
2022/11/02 09:19:37;;;;;;;5.80;1.33;;;11.50;88.60;;;;;;5034381;28;20068;-60
2022/11/02 09:22:05;;;;;;;5.38;1.30;;;11.60;88.60;;;;;;5033584;28;20049;-63
2022/11/02 09:24:32;;;;;;;5.45;1.35;;;11.70;88.50;;;;;;5036465;28;20444;-61
2022/11/02 09:26:59;;;;;;;5.72;1.00;;;11.80;88.30;;;;;;5035942;28;20073;-62
2022/11/02 09:29:26;;;;;;;5.63;1.65;;;11.90;88.20;;;;;;5033905;28;20047;-62
2022/11/02 09:31:53;;;;;;;8.23;1.63;;;12.00;88.10;;;;;;5035669;28;20602;-68
2022/11/02 09:34:19;;;;;;;7.25;1.35;;;12.10;88.00;;;;;;5033192;28;20518;-69
2022/11/02 09:36:46;;;;;;;7.18;1.75;;;12.20;87.90;;;;;;5037271;28;20080;-62
2022/11/02 09:39:16;;;;;;;6.28;1.50;;;12.20;87.60;;;;;;5032268;28;20057;-61
2022/11/02 09:41:47;;;;;;;7.23;1.63;;;12.30;87.20;;;;;;5034104;28;20118;-62
2022/11/02 09:44:23;;;;;;;7.97;1.40;;;12.40;86.90;;;;;;5033299;28;20049;-62
2022/11/02 09:46:50;;;;;;;7.72;1.40;;;12.50;86.30;;;;;;5034290;28;20492;-63
2022/11/02 09:49:19;;;;;;;6.55;1.08;;;12.50;86.20;;;;;;5032347;28;20041;-63
2022/11/02 09:51:49;;;;;;;5.85;1.10;;;12.60;85.90;;;;;;5035428;28;20120;-70
2022/11/02 09:54:22;;;;;;;4.43;1.20;;;12.60;85.80;;;;;;5050635;28;20424;-70
2022/11/02 09:56:51;;;;;;;6.00;1.45;;;12.70;85.60;;;;;;5041626;28;20416;-62
2022/11/02 09:59:21;;;;;;;4.53;1.40;;;12.70;85.50;;;;;;5034094;28;20053;-63
2022/11/02 10:01:54;;;;;;;;;;;12.70;84.90;;;;;;5032762;28;20049;-63
2022/11/02 10:04:51;;;;;;;6.65;1.20;;;12.80;84.50;;;;;;5034974;28;19928;-62
2022/11/02 10:07:29;;;;;;;6.60;1.40;;;12.90;84.20;;;;;;5034409;28;20037;-61
2022/11/02 10:10:02;;;;;;;7.40;1.40;;;12.90;84.10;;;;;;5035209;28;20040;-61
2022/11/02 10:12:38;;;;;;;4.47;1.08;;;12.90;83.80;;;;;;5036240;28;20048;-64
2022/11/02 10:15:11;;;;;;;6.50;1.50;;;13.00;83.40;;;;;;5035045;28;20050;-64
2022/11/02 10:17:40;;;;;;;5.10;1.40;;;13.00;83.20;;;;;;5034588;28;20047;-64
2022/11/02 10:20:16;;;;;;;4.72;1.08;;;13.00;82.70;;;;;;5036201;28;20067;-67
2022/11/02 10:22:45;;;;;;;4.55;1.52;;;13.10;82.80;;;;;;5047539;28;20045;-66
2022/11/02 10:25:16;;;;;;;8.55;1.75;;;13.10;82.00;;;;;;5046972;28;20042;-67
2022/11/02 10:27:49;;;;;;;7.13;1.20;;;13.10;81.80;;;;;;5036314;28;20048;-71
2022/11/02 10:30:18;;;;;;;3.97;0.90;;;13.20;82.00;;;;;;5033526;28;20052;-64
2022/11/02 10:32:47;;;;;;;6.65;1.33;;;13.30;81.30;;;;;;5041272;28;20123;-64
2022/11/02 10:35:19;;;;;;;7.00;1.33;;;13.30;81.20;;;;;;5034545;28;20068;-62
2022/11/02 10:37:59;;;;;;;5.15;1.00;;;13.40;81.30;;;;;;5038069;28;20083;-62
2022/11/02 10:40:48;;;;;;;4.45;1.52;;;13.30;81.00;;;;;;5035920;28;20145;-63
2022/11/02 10:43:37;;;;;;;3.67;0.98;;;13.40;80.90;;;;;;5035417;28;20513;-65
2022/11/02 10:46:28;;;;;;;6.53;1.08;;;13.50;80.50;;;;;;5030849;28;20049;-67
2022/11/02 10:49:06;;;;;;;4.32;1.25;;;13.50;80.50;;;;;;5028806;28;20057;-66
2022/11/02 10:51:33;;;;;;;4.85;0.90;;;13.50;80.50;;;;;;5029000;28;20064;-66
2022/11/02 10:54:00;;;;;;;4.25;1.00;;;13.50;80.20;;;;;;5032052;28;20054;-65
2022/11/02 10:56:32;;;;;;;4.13;1.25;;;13.50;79.90;;;;;;5037193;28;20132;-65
2022/11/02 10:59:03;;;;;;;7.32;2.00;;;13.40;79.20;;;;;;5034500;28;20054;-65
2022/11/02 11:01:32;;;;;;;4.20;0.95;;;13.50;78.80;;;;;;5037760;28;20084;-71
2022/11/02 11:04:00;;;;;;;3.08;0.90;;;13.40;79.10;;;;;;5034963;28;20103;-71
2022/11/02 11:06:31;;;;;;;4.93;1.20;;;13.40;78.50;;;;;;5032024;28;20484;-64
2022/11/02 11:09:06;;;;;;;3.55;0.93;;;13.40;78.50;;;;;;5038695;28;20139;-66
2022/11/02 11:11:36;;;;;;;5.30;0.80;;;13.40;78.20;;;;;;5038703;28;20060;-64
2022/11/02 11:14:06;;;;;;;5.43;1.05;;;13.30;78.40;;;;;;5038430;28;20046;-64
2022/11/02 11:16:42;;;;;;;5.50;1.00;;;13.30;77.80;;;;;;5039011;28;20045;-71
2022/11/02 11:19:21;;;;;;;4.55;0.85;;;13.20;77.50;;;;;;5036835;28;20055;-71
2022/11/02 11:21:49;;;;;;;2.28;0.90;;;13.30;77.00;;;;;;5038550;28;20045;-65
2022/11/02 11:24:26;;;;;;;5.00;1.00;;;13.30;77.60;;;;;;5033673;28;20057;-66
2022/11/02 11:27:16;;;;;;;5.75;1.13;;;13.20;77.30;;;;;;5045272;28;20498;-71
2022/11/02 11:29:48;;;;;;;4.00;1.10;;;13.20;77.50;;;;;;5035837;28;20408;-70
2022/11/02 11:32:18;;;;;;;4.70;0.93;;;13.20;77.70;;;;;;5038649;28;20080;-65
2022/11/02 11:34:53;;;;;;;7.25;1.13;;;13.20;77.80;;;;;;5045572;28;20045;-65
2022/11/02 11:37:20;;;;;;;5.15;1.13;;;13.20;77.40;;;;;;5035944;28;20052;-64
2022/11/02 11:39:52;;;;;;;5.15;1.02;;;13.30;77.40;;;;;;5037793;28;20045;-64
2022/11/02 11:42:23;;;;;;;4.53;1.00;;;13.30;77.30;;;;;;5034192;28;20053;-66
2022/11/02 11:44:57;;;;;;;5.50;1.40;;;13.30;77.70;;;;;;5034687;28;20055;-66
2022/11/02 11:47:27;;;;;;;5.13;0.90;;;13.20;77.10;;;;;;5038276;28;20053;-62
2022/11/02 11:49:55;;;;;;;6.15;0.95;;;13.20;76.90;;;;;;5033767;28;20041;-61
2022/11/02 11:52:25;;;;;;;3.85;1.15;;;13.20;76.30;;;;;;5036089;28;20524;-63
2022/11/02 11:54:54;;;;;;;6.22;1.50;;;13.20;75.50;;;;;;5037614;28;20049;-63
2022/11/02 11:57:31;;;;;;;6.68;1.13;;;13.20;75.40;;;;;;5036171;28;20447;-63
2022/11/02 12:00:03;;;;;;;5.20;1.20;;;13.20;74.70;;;;;;5031572;28;20041;-63
2022/11/02 12:02:32;;;;;;;3.13;0.80;;;13.20;75.20;;;;;;5037693;28;20065;-64
2022/11/02 12:05:12;;;;;;;4.93;0.93;;;13.20;75.50;;;;;;5036380;28;20096;-65
2022/11/02 12:07:59;;;;;;;3.58;0.88;;;13.20;75.00;;;;;;5039967;28;20048;-64
2022/11/02 12:10:40;;;;;;;3.60;0.80;;;13.30;74.60;;;;;;5036376;28;20057;-62
2022/11/02 12:13:28;;;;;;;5.20;1.20;;;13.30;74.20;;;;;;5036087;28;20620;-63
2022/11/02 12:16:07;;;;;;;6.82;0.90;;;13.30;74.00;;;;;;5035848;28;20128;-62
2022/11/02 12:18:49;;;;;;;9.15;1.27;;;13.30;74.40;;;;;;5034661;28;20057;-62
2022/11/02 12:21:28;;;;;;;3.10;0.80;;;13.30;73.70;;;;;;5038108;28;20044;-62
2022/11/02 12:24:20;;;;;;;3.55;0.73;;;13.40;74.00;;;;;;5036962;28;20048;-62
2022/11/02 12:26:59;;;;;;;3.90;0.93;;;13.40;73.40;;;;;;5031694;28;20053;-65
2022/11/02 12:29:45;;;;;;;4.95;0.93;;;13.50;72.50;;;;;;5036030;28;20128;-64
2022/11/02 12:32:23;;;;;;;5.43;1.00;;;13.40;72.30;;;;;;5033827;28;20054;-62
2022/11/02 12:35:06;;;;;;;5.57;1.10;;;13.50;72.70;;;;;;5038938;28;20049;-63
2022/11/02 12:37:44;;;;;;;4.85;0.70;;;13.50;72.80;;;;;;5036911;28;20061;-63
2022/11/02 12:40:21;;;;;;;3.42;0.70;;;13.50;73.00;;;;;;5050316;28;20480;-63
2022/11/02 12:42:58;;;;;;;4.80;1.10;;;13.60;73.00;;;;;;5037417;28;20052;-62
2022/11/02 12:45:46;;;;;;;6.00;0.82;;;13.60;73.50;;;;;;5034758;28;20052;-66
2022/11/02 12:48:21;;;;;;;5.47;1.42;;;13.60;73.30;;;;;;5034065;28;20041;-67
2022/11/02 12:50:58;;;;;;;6.03;0.82;;;13.60;73.20;;;;;;5035973;28;20049;-67
2022/11/02 12:53:42;;;;;;;4.30;0.90;;;13.60;73.30;;;;;;5030554;28;20046;-66
2022/11/02 12:56:16;;;;;;;4.85;1.10;;;13.50;73.10;;;;;;5030821;28;20058;-63
2022/11/02 12:58:44;;;;;;;5.30;1.52;;;13.50;73.00;;;;;;5034386;28;20052;-62
2022/11/02 13:01:20;;;;;;;6.43;1.40;;;13.60;72.80;;;;;;5035178;28;20047;-61
2022/11/02 13:03:52;;;;;;;4.40;1.05;;;13.50;73.40;;;;;;5036391;28;20046;-61
2022/11/02 13:06:23;;;;;;;5.45;1.17;;;13.40;72.50;;;;;;5048560;28;20061;-65
2022/11/02 13:08:54;;;;;;;4.03;1.13;;;13.40;73.20;;;;;;5036481;28;20044;-64
2022/11/02 13:11:25;;;;;;;5.45;1.10;;;13.50;72.90;;;;;;5031993;28;20080;-65
2022/11/02 13:13:55;;;;;;;4.85;1.15;;;13.50;73.20;;;;;;5040672;28;20484;-64
2022/11/02 13:16:31;;;;;;;4.15;1.17;;;13.60;73.10;;;;;;5041301;28;20051;-62
2022/11/02 13:19:02;;;;;;;5.38;1.75;;;13.60;73.10;;;;;;5034153;28;20391;-61
2022/11/02 13:21:35;;;;;;;5.78;1.10;;;13.60;72.50;;;;;;5032434;28;20107;-61
2022/11/02 13:24:02;;;;;;;9.30;1.65;;;13.60;71.50;;;;;;5038891;28;20140;-62
2022/11/02 13:26:36;;;;;;;4.07;1.15;;;13.60;72.10;;;;;;5034717;28;20045;-62
2022/11/02 13:29:11;;;;;;;5.00;1.38;;;13.60;71.70;;;;;;5037642;28;20072;-67
2022/11/02 13:31:45;;;;;;;6.10;1.10;;;13.60;71.90;;;;;;5033407;28;20056;-72